createdAt,value
2022-10-13T00:01:11.936Z,0.60
2022-10-13T00:03:41.014Z,0.70
2022-10-13T00:06:10.480Z,0.60
2022-10-13T00:08:38.872Z,0.70
2022-10-13T00:11:12.174Z,0.70
2022-10-13T00:13:40.145Z,0.60
2022-10-13T00:16:08.862Z,0.50
2022-10-13T00:18:36.179Z,0.30
2022-10-13T00:21:08.351Z,0.30
2022-10-13T00:23:37.095Z,0.40
2022-10-13T00:26:09.734Z,0.50
2022-10-13T00:28:38.005Z,0.40
2022-10-13T00:31:17.773Z,0.50
2022-10-13T00:33:45.307Z,0.50
2022-10-13T00:36:12.877Z,0.50
2022-10-13T00:38:40.203Z,0.50
2022-10-13T00:41:08.268Z,0.40
2022-10-13T00:43:53.892Z,0.40
2022-10-13T00:46:22.750Z,0.30
2022-10-13T00:48:51.459Z,0.30
2022-10-13T00:51:24.544Z,0.30
2022-10-13T00:53:52.868Z,0.40
2022-10-13T00:56:21.181Z,0.30
2022-10-13T00:58:49.309Z,0.40
2022-10-13T01:01:17.132Z,0.30
2022-10-13T01:03:44.471Z,0.30
2022-10-13T01:06:13.091Z,0.30
2022-10-13T01:08:40.377Z,0.20
2022-10-13T01:11:38.086Z,0.20
2022-10-13T01:14:37.511Z,0.10
2022-10-13T01:17:28.998Z,0.00
2022-10-13T01:20:33.225Z,0.10
2022-10-13T01:23:24.275Z,0.10
2022-10-13T01:26:36.024Z,0.10
2022-10-13T01:29:45.249Z,0.20
2022-10-13T01:32:32.686Z,0.10
2022-10-13T01:35:38.196Z,0.00
2022-10-13T01:38:24.285Z,-0.10
2022-10-13T01:41:26.747Z,0.00
2022-10-13T01:44:26.247Z,0.10
2022-10-13T01:46:55.349Z,0.00
2022-10-13T01:49:27.687Z,0.00
2022-10-13T01:52:00.216Z,0.00
2022-10-13T01:54:27.484Z,0.00
2022-10-13T01:56:56.288Z,-0.10
2022-10-13T01:59:25.958Z,-0.10
2022-10-13T02:02:09.665Z,-0.10
2022-10-13T02:04:50.449Z,-0.10
2022-10-13T02:07:41.784Z,-0.20
2022-10-13T02:10:39.637Z,-0.20
2022-10-13T02:13:11.494Z,-0.10
2022-10-13T02:15:47.697Z,0.00
2022-10-13T02:18:20.417Z,0.00
2022-10-13T02:20:48.244Z,-0.10
2022-10-13T02:23:17.870Z,-0.20
2022-10-13T02:25:47.296Z,-0.30
2022-10-13T02:28:16.547Z,-0.30
2022-10-13T02:30:45.200Z,-0.20
2022-10-13T02:33:14.633Z,-0.20
2022-10-13T02:35:42.950Z,-0.20
2022-10-13T02:38:11.004Z,-0.30
2022-10-13T02:40:38.699Z,-0.30
2022-10-13T02:43:06.249Z,-0.30
2022-10-13T02:45:33.652Z,-0.20
2022-10-13T02:48:00.937Z,-0.30
2022-10-13T02:50:28.373Z,-0.30
2022-10-13T02:52:55.743Z,-0.30
2022-10-13T02:55:23.024Z,-0.30
2022-10-13T02:57:50.213Z,-0.30
2022-10-13T03:00:17.994Z,-0.40
2022-10-13T03:02:45.224Z,-0.50
2022-10-13T03:05:12.513Z,-0.50
2022-10-13T03:07:39.869Z,-0.50
2022-10-13T03:10:07.888Z,-0.40
2022-10-13T03:12:35.213Z,-0.40
2022-10-13T03:15:02.589Z,-0.40
2022-10-13T03:17:29.936Z,-0.40
2022-10-13T03:19:57.322Z,-0.40
2022-10-13T03:22:24.793Z,-0.40
2022-10-13T03:24:52.191Z,-0.30
2022-10-13T03:27:19.367Z,-0.30
2022-10-13T03:29:46.891Z,-0.30
2022-10-13T03:32:14.300Z,-0.50
2022-10-13T03:34:41.587Z,-0.50
2022-10-13T03:37:09.153Z,-0.50
2022-10-13T03:39:36.503Z,-0.50
2022-10-13T03:42:03.947Z,-0.40
2022-10-13T03:44:31.357Z,-0.40
2022-10-13T03:46:58.651Z,-0.50
2022-10-13T03:49:26.260Z,-0.50
2022-10-13T03:51:53.525Z,-0.50
2022-10-13T03:54:20.828Z,-0.50
2022-10-13T03:56:48.172Z,-0.50
2022-10-13T03:59:17.641Z,-0.50
2022-10-13T04:01:44.982Z,-0.50
2022-10-13T04:04:13.225Z,-0.50
2022-10-13T04:06:40.601Z,-0.50
2022-10-13T04:09:08.263Z,-0.50
2022-10-13T04:11:35.782Z,-0.40
2022-10-13T04:14:03.094Z,-0.40
2022-10-13T04:16:31.559Z,-0.40
2022-10-13T04:19:02.248Z,-0.40
2022-10-13T04:21:31.107Z,-0.40
2022-10-13T04:23:59.848Z,-0.20
2022-10-13T04:26:30.070Z,0.00
2022-10-13T04:28:57.381Z,0.00
2022-10-13T04:31:25.371Z,0.00
2022-10-13T04:33:53.708Z,-0.10
2022-10-13T04:36:21.770Z,-0.20
2022-10-13T04:38:49.409Z,-0.10
2022-10-13T04:41:18.597Z,-0.10
2022-10-13T04:43:49.964Z,0.00
2022-10-13T04:46:21.070Z,0.00
2022-10-13T04:48:49.201Z,0.10
2022-10-13T04:51:25.528Z,0.30
2022-10-13T04:53:57.423Z,0.40
2022-10-13T04:56:25.966Z,0.40
2022-10-13T04:58:54.081Z,0.30
2022-10-13T05:01:24.729Z,0.30
2022-10-13T05:03:57.294Z,0.20
2022-10-13T05:06:27.958Z,0.20
2022-10-13T05:08:56.141Z,0.20
2022-10-13T05:11:24.620Z,0.20
2022-10-13T05:13:52.252Z,0.10
2022-10-13T05:16:21.468Z,0.10
2022-10-13T05:18:50.050Z,0.10
2022-10-13T05:21:21.106Z,0.20
2022-10-13T05:23:48.818Z,0.30
2022-10-13T05:26:18.547Z,0.40
2022-10-13T05:28:46.504Z,0.50
2022-10-13T05:31:21.381Z,0.60
2022-10-13T05:33:50.180Z,0.60
2022-10-13T05:36:26.838Z,0.60
2022-10-13T05:38:57.526Z,0.70
2022-10-13T05:41:26.415Z,0.70
2022-10-13T05:43:59.720Z,0.70
2022-10-13T05:46:27.221Z,0.80
2022-10-13T05:48:54.727Z,0.90
2022-10-13T05:51:28.723Z,1.00
2022-10-13T05:54:24.923Z,1.20
2022-10-13T05:56:58.930Z,1.30
2022-10-13T05:59:28.723Z,1.50
2022-10-13T06:01:56.420Z,1.50
2022-10-13T06:04:30.841Z,1.60
2022-10-13T06:06:58.078Z,1.80
2022-10-13T06:09:25.478Z,1.90
2022-10-13T06:11:52.808Z,2.10
2022-10-13T06:14:20.241Z,2.30
2022-10-13T06:16:47.515Z,2.40
2022-10-13T06:19:14.938Z,2.50
2022-10-13T06:21:42.253Z,2.50
2022-10-13T06:24:09.834Z,2.40
2022-10-13T06:26:37.053Z,2.80
2022-10-13T06:29:05.128Z,3.00
2022-10-13T06:31:32.594Z,2.70
2022-10-13T06:34:00.349Z,2.70
2022-10-13T06:36:28.178Z,2.80
2022-10-13T06:38:55.622Z,2.80
2022-10-13T06:41:22.848Z,2.90
2022-10-13T06:43:50.424Z,3.00
2022-10-13T06:46:17.976Z,3.20
2022-10-13T06:48:45.219Z,3.70
2022-10-13T06:51:12.947Z,3.90
2022-10-13T06:53:40.249Z,4.00
2022-10-13T06:56:08.214Z,3.80
2022-10-13T06:58:36.603Z,3.80
2022-10-13T07:01:05.306Z,4.00
2022-10-13T07:03:33.102Z,3.90
2022-10-13T07:06:05.325Z,3.80
2022-10-13T07:08:34.334Z,4.00
2022-10-13T07:11:15.886Z,4.00
2022-10-13T07:13:46.672Z,4.10
2022-10-13T07:16:15.523Z,4.30
2022-10-13T07:18:43.025Z,4.40
2022-10-13T07:21:10.319Z,4.40
2022-10-13T07:23:37.664Z,4.70
2022-10-13T07:26:09.993Z,4.90
2022-10-13T07:28:38.068Z,4.80
2022-10-13T07:31:12.205Z,4.90
2022-10-13T07:33:39.469Z,5.10
2022-10-13T07:36:07.492Z,5.10
2022-10-13T07:38:35.181Z,5.30
2022-10-13T07:41:04.687Z,5.60
2022-10-13T07:43:32.191Z,5.80
2022-10-13T07:46:01.292Z,5.90
2022-10-13T07:48:29.001Z,6.00
2022-10-13T07:50:56.320Z,6.20
2022-10-13T07:53:24.249Z,6.20
2022-10-13T07:55:51.580Z,6.40
2022-10-13T07:58:18.888Z,6.50
2022-10-13T08:00:46.157Z,6.60
2022-10-13T08:03:13.413Z,6.40
2022-10-13T08:05:40.683Z,6.60
2022-10-13T08:08:08.263Z,6.50
2022-10-13T08:10:35.888Z,6.60
2022-10-13T08:13:03.095Z,6.90
2022-10-13T08:15:30.303Z,7.00
2022-10-13T08:17:57.695Z,7.20
2022-10-13T08:20:28.844Z,7.40
2022-10-13T08:23:03.514Z,7.40
2022-10-13T08:25:31.158Z,7.90
2022-10-13T08:28:00.593Z,8.20
2022-10-13T08:30:28.269Z,8.40
2022-10-13T08:32:55.818Z,8.40
2022-10-13T08:35:23.103Z,8.50
2022-10-13T08:37:50.487Z,8.70
2022-10-13T08:40:21.220Z,8.90
2022-10-13T08:42:48.641Z,8.60
2022-10-13T08:45:46.140Z,8.80
2022-10-13T08:48:21.606Z,8.90
2022-10-13T08:50:52.748Z,8.70
2022-10-13T08:53:37.494Z,8.80
2022-10-13T08:56:20.556Z,8.80
2022-10-13T08:58:50.412Z,9.90
2022-10-13T09:01:27.566Z,10.60
2022-10-13T09:03:57.984Z,11.80
2022-10-13T09:06:31.974Z,13.10
2022-10-13T09:09:05.980Z,13.40
2022-10-13T09:11:37.111Z,13.80
2022-10-13T09:14:10.431Z,14.30
2022-10-13T09:16:41.380Z,15.10
2022-10-13T09:19:36.641Z,15.20
2022-10-13T09:22:24.383Z,14.30
2022-10-13T09:25:20.579Z,14.10
2022-10-13T09:28:00.151Z,15.40
2022-10-13T09:30:34.110Z,16.70
2022-10-13T09:33:12.998Z,18.50
2022-10-13T09:35:50.371Z,18.00
2022-10-13T09:38:22.190Z,17.70
2022-10-13T09:41:17.063Z,17.60
2022-10-13T09:43:47.338Z,16.60
2022-10-13T09:46:33.273Z,17.20
2022-10-13T09:49:20.964Z,19.30
2022-10-13T09:51:49.148Z,20.00
2022-10-13T09:54:37.153Z,19.40
2022-10-13T09:57:35.173Z,20.30
2022-10-13T10:00:11.158Z,20.50
2022-10-13T10:02:59.369Z,19.80
2022-10-13T10:05:42.772Z,17.70
2022-10-13T10:09:02.324Z,17.10
2022-10-13T10:11:34.956Z,16.00
2022-10-13T10:14:36.186Z,15.10
2022-10-13T10:17:03.479Z,14.70
2022-10-13T10:19:39.875Z,14.10
2022-10-13T10:22:36.122Z,13.00
2022-10-13T10:25:48.829Z,12.80
2022-10-13T10:28:33.613Z,13.30
2022-10-13T10:31:37.921Z,13.30
2022-10-13T10:34:14.830Z,12.40
2022-10-13T10:37:10.424Z,12.60
2022-10-13T10:39:42.389Z,12.70
2022-10-13T10:42:28.199Z,12.60
2022-10-13T10:44:57.148Z,12.60
2022-10-13T10:47:26.533Z,12.80
2022-10-13T10:50:00.897Z,12.60
2022-10-13T10:52:40.683Z,12.20
2022-10-13T10:55:29.689Z,12.20
2022-10-13T10:58:08.809Z,12.60
2022-10-13T11:00:44.625Z,12.40
2022-10-13T11:03:20.495Z,12.30
2022-10-13T11:06:01.329Z,12.40
2022-10-13T11:08:30.422Z,12.30
2022-10-13T11:11:36.464Z,12.40
2022-10-13T11:14:07.644Z,12.30
2022-10-13T11:16:58.907Z,12.30
2022-10-13T11:19:30.392Z,12.30
2022-10-13T11:21:58.316Z,12.40
2022-10-13T11:24:34.937Z,12.60
2022-10-13T11:27:08.401Z,13.10
2022-10-13T11:29:44.778Z,13.30
2022-10-13T11:32:27.352Z,13.40
2022-10-13T11:35:05.264Z,13.40
2022-10-13T11:38:06.655Z,13.90
2022-10-13T11:40:40.923Z,13.50
2022-10-13T11:43:35.839Z,12.90
2022-10-13T11:46:29.186Z,13.10
2022-10-13T11:49:07.116Z,12.60
2022-10-13T11:51:37.223Z,12.60
2022-10-13T11:54:32.770Z,12.90
2022-10-13T11:57:00.124Z,12.90
2022-10-13T11:59:32.472Z,13.10
2022-10-13T12:02:06.357Z,12.90
2022-10-13T12:04:33.953Z,12.80
2022-10-13T12:07:04.407Z,12.70
2022-10-13T12:09:33.850Z,12.80
2022-10-13T12:12:04.928Z,12.90
2022-10-13T12:14:32.496Z,12.90
2022-10-13T12:17:01.709Z,13.00
2022-10-13T12:19:31.688Z,12.80
2022-10-13T12:22:00.367Z,12.80
2022-10-13T12:24:31.469Z,12.70
2022-10-13T12:26:59.601Z,12.70
2022-10-13T12:29:32.110Z,12.70
2022-10-13T12:32:03.373Z,12.40
2022-10-13T12:34:34.519Z,12.30
2022-10-13T12:37:05.155Z,12.20
2022-10-13T12:39:34.905Z,12.20
2022-10-13T12:42:03.524Z,12.30
2022-10-13T12:44:33.959Z,12.00
2022-10-13T12:47:03.996Z,12.00
2022-10-13T12:49:37.789Z,11.90
2022-10-13T12:52:11.081Z,11.90
2022-10-13T12:54:40.824Z,11.90
2022-10-13T12:57:35.357Z,12.00
2022-10-13T13:00:05.013Z,12.20
2022-10-13T13:02:33.861Z,12.40
2022-10-13T13:05:01.151Z,12.50
2022-10-13T13:07:37.202Z,12.50
2022-10-13T13:10:18.203Z,12.60
2022-10-13T13:12:47.253Z,12.40
2022-10-13T13:15:36.271Z,12.30
2022-10-13T13:18:36.367Z,12.30
2022-10-13T13:21:06.884Z,12.40
2022-10-13T13:23:35.627Z,12.40
2022-10-13T13:26:13.075Z,12.40
2022-10-13T13:28:47.644Z,12.30
2022-10-13T13:31:17.613Z,12.20
2022-10-13T13:33:45.177Z,12.20
2022-10-13T13:36:24.709Z,12.10
2022-10-13T13:38:55.497Z,12.10
2022-10-13T13:41:24.329Z,12.10
2022-10-13T13:43:51.920Z,12.10
2022-10-13T13:46:25.473Z,12.00
2022-10-13T13:48:53.059Z,11.80
2022-10-13T13:51:20.273Z,11.70
2022-10-13T13:53:47.547Z,11.70
2022-10-13T13:56:19.550Z,11.70
2022-10-13T13:58:47.666Z,11.60
2022-10-13T14:01:16.035Z,11.50
2022-10-13T14:03:43.470Z,11.50
2022-10-13T14:06:18.152Z,11.40
2022-10-13T14:08:45.551Z,11.30
2022-10-13T14:11:13.414Z,11.30
2022-10-13T14:13:40.668Z,11.30
2022-10-13T14:16:12.234Z,11.30
2022-10-13T14:18:39.526Z,11.20
2022-10-13T14:21:07.603Z,11.20
2022-10-13T14:23:36.000Z,11.10
2022-10-13T14:26:07.977Z,11.00
2022-10-13T14:28:35.364Z,11.10
2022-10-13T14:31:06.319Z,11.00
2022-10-13T14:33:33.795Z,11.00
2022-10-13T14:36:06.561Z,11.00
2022-10-13T14:38:34.679Z,11.00
2022-10-13T14:41:04.102Z,10.90
2022-10-13T14:43:31.738Z,10.90
2022-10-13T14:46:06.325Z,10.90
2022-10-13T14:48:35.664Z,10.80
2022-10-13T14:51:07.337Z,10.80
2022-10-13T14:53:39.859Z,10.80
2022-10-13T14:56:20.681Z,10.80
2022-10-13T14:58:53.529Z,10.80
2022-10-13T15:01:21.439Z,10.70
2022-10-13T15:03:49.442Z,10.70
2022-10-13T15:06:19.552Z,10.70
2022-10-13T15:08:48.030Z,10.70
2022-10-13T15:11:16.756Z,10.70
2022-10-13T15:13:44.566Z,10.70
2022-10-13T15:16:23.127Z,10.70
2022-10-13T15:18:53.506Z,10.70
2022-10-13T15:21:21.122Z,10.60
2022-10-13T15:23:48.786Z,10.60
2022-10-13T15:26:18.865Z,10.60
2022-10-13T15:28:49.054Z,10.60
2022-10-13T15:31:18.233Z,10.60
2022-10-13T15:33:54.170Z,10.50
2022-10-13T15:36:23.019Z,10.50
2022-10-13T15:38:50.705Z,10.50
2022-10-13T15:41:19.044Z,10.50
2022-10-13T15:43:46.458Z,10.50
2022-10-13T15:46:21.829Z,10.50
2022-10-13T15:48:50.516Z,10.50
2022-10-13T15:51:20.677Z,10.50
2022-10-13T15:53:49.018Z,10.50
2022-10-13T15:56:17.120Z,10.50
2022-10-13T15:58:45.805Z,10.50
2022-10-13T16:01:15.068Z,10.50
2022-10-13T16:03:43.053Z,10.50
2022-10-13T16:06:12.409Z,10.50
2022-10-13T16:08:41.372Z,10.50
2022-10-13T16:11:14.244Z,10.50
2022-10-13T16:13:42.226Z,10.50
2022-10-13T16:16:09.555Z,10.50
2022-10-13T16:18:39.529Z,10.50
2022-10-13T16:21:18.239Z,10.50
2022-10-13T16:23:47.383Z,10.40
2022-10-13T16:26:15.866Z,10.40
2022-10-13T16:28:43.293Z,10.40
2022-10-13T16:31:13.802Z,10.40
2022-10-13T16:33:42.346Z,10.40
2022-10-13T16:36:12.211Z,10.40
2022-10-13T16:38:39.707Z,10.40
2022-10-13T16:41:08.935Z,10.40
2022-10-13T16:43:36.627Z,10.40
2022-10-13T16:46:05.418Z,10.40
2022-10-13T16:48:33.535Z,10.40
2022-10-13T16:51:06.370Z,10.40
2022-10-13T16:53:34.473Z,10.40
2022-10-13T16:56:03.358Z,10.40
2022-10-13T16:58:30.830Z,10.40
2022-10-13T17:01:09.358Z,10.40
2022-10-13T17:03:37.862Z,10.40
2022-10-13T17:06:06.006Z,10.30
2022-10-13T17:08:33.599Z,10.30
2022-10-13T17:11:01.192Z,10.40
2022-10-13T17:13:28.482Z,10.30
2022-10-13T17:15:57.316Z,10.30
2022-10-13T17:18:25.899Z,10.30
2022-10-13T17:21:05.319Z,10.30
2022-10-13T17:23:32.986Z,10.30
2022-10-13T17:26:06.478Z,10.30
2022-10-13T17:28:35.013Z,10.30
2022-10-13T17:31:12.460Z,10.30
2022-10-13T17:33:41.633Z,10.30
2022-10-13T17:36:16.633Z,10.30
2022-10-13T17:38:44.908Z,10.30
2022-10-13T17:41:12.710Z,10.30
2022-10-13T17:43:41.077Z,10.30
2022-10-13T17:46:38.325Z,10.30
2022-10-13T17:49:09.605Z,10.30
2022-10-13T17:51:37.104Z,10.30
2022-10-13T17:54:04.869Z,10.20
2022-10-13T17:56:32.468Z,10.20
2022-10-13T17:59:01.070Z,10.20
2022-10-13T18:01:38.052Z,10.20
2022-10-13T18:04:08.781Z,10.20
2022-10-13T18:06:41.733Z,10.20
2022-10-13T18:09:20.668Z,10.20
2022-10-13T18:11:51.173Z,10.20
2022-10-13T18:14:24.408Z,10.20
2022-10-13T18:16:52.483Z,10.20
2022-10-13T18:19:21.456Z,10.20
2022-10-13T18:21:49.546Z,10.10
2022-10-13T18:24:16.960Z,10.10
2022-10-13T18:26:44.491Z,10.10
2022-10-13T18:29:12.829Z,10.10
2022-10-13T18:31:41.865Z,10.10
2022-10-13T18:34:17.246Z,10.10
2022-10-13T18:36:50.611Z,10.10
2022-10-13T18:39:20.711Z,10.10
2022-10-13T18:41:48.931Z,10.10
2022-10-13T18:44:16.414Z,10.00
2022-10-13T18:46:44.009Z,10.00
2022-10-13T18:49:13.705Z,10.00
2022-10-13T18:51:41.599Z,10.00
2022-10-13T18:54:09.107Z,10.00
2022-10-13T18:56:37.190Z,10.00
2022-10-13T18:59:06.181Z,10.00
2022-10-13T19:01:35.874Z,10.00
2022-10-13T19:04:03.482Z,10.00
2022-10-13T19:06:32.492Z,10.00
2022-10-13T19:09:02.363Z,10.00
2022-10-13T19:11:31.098Z,10.00
2022-10-13T19:13:59.048Z,10.00
2022-10-13T19:16:28.593Z,10.00
2022-10-13T19:18:56.203Z,10.00
2022-10-13T19:21:23.768Z,10.00
2022-10-13T19:23:51.751Z,10.00
2022-10-13T19:26:24.118Z,10.00
2022-10-13T19:29:03.842Z,10.00
2022-10-13T19:31:32.371Z,10.00
2022-10-13T19:34:00.332Z,10.00
2022-10-13T19:36:31.329Z,10.00
2022-10-13T19:38:59.249Z,9.90
2022-10-13T19:41:28.685Z,9.90
2022-10-13T19:43:56.108Z,9.90
2022-10-13T19:46:23.817Z,9.90
2022-10-13T19:48:51.952Z,9.90
2022-10-13T19:51:19.274Z,9.90
2022-10-13T19:53:46.580Z,9.90
2022-10-13T19:56:26.026Z,9.90
2022-10-13T19:58:54.476Z,9.90
2022-10-13T20:01:22.966Z,9.90
2022-10-13T20:03:50.954Z,9.90
2022-10-13T20:06:20.360Z,9.90
2022-10-13T20:08:50.616Z,9.90
2022-10-13T20:11:23.713Z,9.90
2022-10-13T20:13:52.407Z,9.90
2022-10-13T20:16:23.303Z,9.90
2022-10-13T20:18:58.741Z,9.90
2022-10-13T20:21:27.606Z,9.80
2022-10-13T20:23:55.048Z,9.80
2022-10-13T20:26:22.826Z,9.80
2022-10-13T20:28:51.258Z,9.80
2022-10-13T20:31:20.163Z,9.80
2022-10-13T20:33:50.051Z,9.80
2022-10-13T20:36:18.150Z,9.80
2022-10-13T20:38:45.408Z,9.80
2022-10-13T20:41:30.432Z,9.80
2022-10-13T20:43:59.402Z,9.80
2022-10-13T20:46:27.351Z,9.70
2022-10-13T20:49:12.313Z,9.80
2022-10-13T20:51:42.893Z,9.80
2022-10-13T20:54:11.963Z,9.80
2022-10-13T20:56:40.098Z,9.70
2022-10-13T20:59:10.686Z,9.70
2022-10-13T21:01:38.611Z,9.70
2022-10-13T21:04:06.037Z,9.70
2022-10-13T21:06:34.120Z,9.70
2022-10-13T21:09:01.717Z,9.70
2022-10-13T21:11:29.041Z,9.70
2022-10-13T21:13:57.533Z,9.70
2022-10-13T21:16:27.772Z,9.70
2022-10-13T21:18:56.227Z,9.70
2022-10-13T21:21:26.298Z,9.70
2022-10-13T21:23:55.471Z,9.70
2022-10-13T21:26:24.743Z,9.70
2022-10-13T21:28:52.252Z,9.70
2022-10-13T21:31:21.906Z,9.70
2022-10-13T21:33:49.826Z,9.70
2022-10-13T21:36:22.918Z,9.70
2022-10-13T21:38:56.592Z,9.70
2022-10-13T21:41:24.904Z,9.70
2022-10-13T21:43:53.350Z,9.70
2022-10-13T21:46:28.844Z,9.70
2022-10-13T21:49:00.651Z,9.70
2022-10-13T21:51:31.303Z,9.70
2022-10-13T21:54:02.388Z,9.70
2022-10-13T21:56:29.896Z,9.70
2022-10-13T21:58:57.573Z,9.70
2022-10-13T22:01:25.650Z,9.70
2022-10-13T22:03:56.467Z,9.60
2022-10-13T22:06:24.392Z,9.60
2022-10-13T22:08:53.562Z,9.60
2022-10-13T22:11:22.143Z,9.60
2022-10-13T22:13:49.583Z,9.60
2022-10-13T22:16:22.418Z,9.70
2022-10-13T22:18:53.070Z,9.70
2022-10-13T22:21:24.584Z,9.70
2022-10-13T22:23:51.894Z,9.70
2022-10-13T22:26:19.569Z,9.60
2022-10-13T22:28:48.551Z,9.60
2022-10-13T22:31:15.957Z,9.70
2022-10-13T22:33:44.523Z,9.60
2022-10-13T22:36:18.819Z,9.60
2022-10-13T22:38:47.750Z,9.60
2022-10-13T22:41:16.962Z,9.60
2022-10-13T22:43:48.188Z,9.60
2022-10-13T22:46:18.115Z,9.60
2022-10-13T22:48:45.211Z,9.70
2022-10-13T22:51:17.440Z,9.60
2022-10-13T22:53:45.159Z,9.60
2022-10-13T22:56:18.367Z,9.60
2022-10-13T22:58:53.486Z,9.60
2022-10-13T23:01:22.156Z,9.60
2022-10-13T23:03:51.720Z,9.60
2022-10-13T23:06:22.204Z,9.60
2022-10-13T23:08:50.145Z,9.60
2022-10-13T23:11:18.492Z,9.60
2022-10-13T23:13:45.978Z,9.60
2022-10-13T23:16:19.266Z,9.60
2022-10-13T23:18:47.148Z,9.60
2022-10-13T23:21:17.378Z,9.60
2022-10-13T23:23:45.580Z,9.60
2022-10-13T23:26:15.489Z,9.60
2022-10-13T23:28:43.109Z,9.60
2022-10-13T23:31:14.745Z,9.60
2022-10-13T23:33:42.638Z,9.60
2022-10-13T23:36:14.721Z,9.60
2022-10-13T23:38:42.682Z,9.60
2022-10-13T23:41:13.162Z,9.60
2022-10-13T23:43:41.397Z,9.60
2022-10-13T23:46:11.004Z,9.70
2022-10-13T23:48:39.245Z,9.70
2022-10-13T23:51:15.642Z,9.70
2022-10-13T23:53:43.226Z,9.70
2022-10-13T23:56:12.498Z,9.70
2022-10-13T23:58:41.316Z,9.70
